Tuesday, February 20, 2018, 3:39 PM GMT
Back to Local

CXHF, High Falls , Que.

Location: , , Canada Lat: 45.833
Local Time: 3:39 PM GMT (15:39 GMT) Lon: -75.65
Time Zone: GMT Elev: 623 ft

Show me the last for .
Show Coded

Time T Td Feel RH Dir Speed Gust Alt SLP Vis Weather Sky Remarks
2018-02-20 15:00 35 35 - 100 - - - - - 0 1-hr Precip Total: 0.04"
2018-02-20 14:00 34 34 - 100 - - - - - 0 1-hr Precip Total: 0.07"
2018-02-20 13:00 33 33 - 100 - - - - - 0 1-hr Precip Total: 0.09"
2018-02-20 12:00 33 33 - 100 - - - - - 0 1-hr Precip Total: 0.08"
2018-02-20 11:00 33 33 - 100 - - - - - 0 None
2018-02-20 10:00 33 33 - 100 - - - - - 0 None
2018-02-20 09:00 33 33 - 100 - - - - - 0 None
2018-02-20 08:00 33 33 - 100 - - - - - 0 None
2018-02-20 07:00 33 33 - 100 - - - - - 0 None
2018-02-20 06:00 33 33 - 100 - - - - - 0 1-hr Precip Total: 0.06"
2018-02-20 05:00 33 33 - 100 - - - - - 0 None
2018-02-20 04:00 31 31 - 100 - - - - - 0 1-hr Precip Total: 0.04"
2018-02-20 03:00 33 33 - 100 - - - - - 0 None
2018-02-20 02:00 33 33 - 100 - - - - - 0 None
2018-02-20 01:00 33 33 - 100 - - - - - 0 None
2018-02-20 00:00 33 33 - 100 - - - - - 0 1-hr Precip Total: 0.05"
2018-02-19 23:00 33 33 - 99 - - - - - 0 None
2018-02-19 22:00 33 31 - 92 - - - - - 0 1-hr Precip Total: 0.05"
2018-02-19 21:00 35 34 - 96 - - - - - 0 None
2018-02-19 20:00 39 29 - 68 - - - - - 0 None
2018-02-19 19:00 40 28 - 61 - - - - - 0 None
2018-02-19 18:00 39 26 - 59 - - - - - 0 None
2018-02-19 17:00 39 26 - 59 - - - - - 0 None
2018-02-19 16:00 36 25 - 63 - - - - - 0 None

Support USWX by starting your Amazon purchase here.